createdAt,value
2022-08-28T00:00:39.615Z,99.90
2022-08-28T00:03:06.934Z,99.90
2022-08-28T00:05:34.378Z,99.90
2022-08-28T00:08:01.315Z,99.90
2022-08-28T00:10:28.884Z,99.90
2022-08-28T00:12:57.475Z,99.90
2022-08-28T00:15:29.436Z,99.90
2022-08-28T00:17:56.345Z,99.90
2022-08-28T00:20:24.002Z,99.90
2022-08-28T00:22:51.591Z,99.90
2022-08-28T00:25:20.619Z,99.90
2022-08-28T00:27:53.161Z,99.90
2022-08-28T00:30:23.566Z,99.90
2022-08-28T00:32:51.781Z,99.90
2022-08-28T00:35:19.083Z,99.90
2022-08-28T00:37:46.717Z,99.90
2022-08-28T00:40:18.678Z,99.90
2022-08-28T00:42:56.129Z,99.90
2022-08-28T00:45:24.607Z,99.90
2022-08-28T00:47:51.634Z,99.90
2022-08-28T00:50:22.039Z,99.90
2022-08-28T00:52:52.909Z,99.90
2022-08-28T00:55:26.241Z,99.90
2022-08-28T00:57:58.301Z,99.90
2022-08-28T01:00:36.993Z,99.90
2022-08-28T01:03:05.716Z,99.90
2022-08-28T01:05:35.232Z,99.90
2022-08-28T01:08:04.430Z,99.90
2022-08-28T01:10:34.852Z,99.90
2022-08-28T01:13:01.984Z,99.90
2022-08-28T01:15:32.966Z,99.90
2022-08-28T01:18:08.435Z,99.90
2022-08-28T01:20:38.142Z,99.90
2022-08-28T01:23:39.685Z,99.90
2022-08-28T01:26:11.635Z,99.90
2022-08-28T01:28:40.102Z,99.90
2022-08-28T01:31:10.901Z,99.90
2022-08-28T01:33:38.380Z,99.90
2022-08-28T01:36:12.248Z,99.90
2022-08-28T01:38:41.276Z,99.90
2022-08-28T01:41:08.277Z,99.90
2022-08-28T01:43:35.198Z,99.90
2022-08-28T01:46:06.049Z,99.90
2022-08-28T01:48:36.110Z,99.90
2022-08-28T01:51:04.574Z,99.90
2022-08-28T01:53:33.485Z,99.90
2022-08-28T01:56:04.501Z,99.90
2022-08-28T01:58:36.008Z,99.90
2022-08-28T02:01:10.858Z,99.90
2022-08-28T02:03:38.480Z,99.90
2022-08-28T02:06:05.849Z,99.90
2022-08-28T02:08:32.888Z,99.90
2022-08-28T02:10:59.715Z,99.90
2022-08-28T02:13:26.574Z,99.90
2022-08-28T02:15:53.465Z,99.90
2022-08-28T02:18:20.396Z,99.90
2022-08-28T02:20:47.317Z,99.90
2022-08-28T02:23:14.557Z,99.90
2022-08-28T02:25:41.864Z,99.90
2022-08-28T02:28:09.257Z,99.90
2022-08-28T02:30:38.563Z,99.90
2022-08-28T02:33:06.056Z,99.90
2022-08-28T02:35:33.413Z,99.90
2022-08-28T02:38:01.063Z,99.90
2022-08-28T02:40:28.306Z,99.90
2022-08-28T02:42:55.229Z,99.90
2022-08-28T02:45:22.138Z,99.90
2022-08-28T02:47:52.767Z,99.90
2022-08-28T02:50:20.140Z,99.90
2022-08-28T02:52:47.874Z,99.90
2022-08-28T02:55:17.429Z,99.90
2022-08-28T02:57:45.511Z,99.90
2022-08-28T03:00:17.064Z,99.90
2022-08-28T03:02:46.268Z,99.90
2022-08-28T03:05:16.051Z,99.90
2022-08-28T03:07:42.974Z,99.90
2022-08-28T03:10:10.397Z,99.90
2022-08-28T03:12:38.251Z,99.90
2022-08-28T03:15:07.638Z,99.90
2022-08-28T03:17:36.879Z,99.90
2022-08-28T03:20:08.661Z,99.90
2022-08-28T03:22:53.930Z,99.90
2022-08-28T03:25:22.400Z,99.90
2022-08-28T03:27:50.425Z,99.90
2022-08-28T03:30:18.765Z,99.90
2022-08-28T03:32:45.649Z,99.90
2022-08-28T03:35:12.701Z,99.90
2022-08-28T03:37:39.559Z,99.90
2022-08-28T03:40:08.146Z,99.90
2022-08-28T03:42:35.459Z,99.90
2022-08-28T03:45:02.838Z,99.90
2022-08-28T03:47:29.762Z,99.90
2022-08-28T03:50:00.165Z,99.90
2022-08-28T03:52:27.331Z,99.90
2022-08-28T03:54:54.217Z,99.90
2022-08-28T03:57:22.444Z,99.90
2022-08-28T03:59:51.679Z,99.90
2022-08-28T04:02:20.616Z,99.90
2022-08-28T04:04:49.619Z,99.90
2022-08-28T04:07:18.452Z,99.90
2022-08-28T04:09:45.450Z,99.90
2022-08-28T04:12:12.340Z,99.90
2022-08-28T04:14:39.196Z,99.90
2022-08-28T04:17:07.072Z,99.90
2022-08-28T04:19:34.165Z,99.90
2022-08-28T04:22:01.267Z,99.90
2022-08-28T04:24:28.464Z,99.90
2022-08-28T04:26:55.484Z,99.90
2022-08-28T04:29:23.122Z,99.90
2022-08-28T04:31:50.458Z,99.90
2022-08-28T04:34:18.026Z,99.90
2022-08-28T04:36:46.073Z,99.90
2022-08-28T04:39:13.196Z,99.90
2022-08-28T04:41:40.578Z,99.90
2022-08-28T04:44:08.170Z,99.90
2022-08-28T04:46:35.454Z,99.90
2022-08-28T04:49:04.357Z,99.90
2022-08-28T04:51:32.240Z,99.90
2022-08-28T04:53:59.610Z,99.90
2022-08-28T04:56:26.966Z,99.90
2022-08-28T04:58:54.186Z,99.90
2022-08-28T05:01:24.494Z,99.90
2022-08-28T05:03:57.921Z,99.90
2022-08-28T05:06:26.897Z,99.90
2022-08-28T05:08:59.038Z,99.90
2022-08-28T05:11:34.344Z,99.90
2022-08-28T05:14:12.643Z,99.90
2022-08-28T05:16:43.758Z,99.90
2022-08-28T05:19:11.862Z,99.90
2022-08-28T05:21:39.143Z,99.90
2022-08-28T05:24:07.330Z,99.90
2022-08-28T05:26:34.875Z,99.90
2022-08-28T05:29:02.246Z,99.90
2022-08-28T05:31:31.047Z,99.90
2022-08-28T05:33:59.299Z,99.90
2022-08-28T05:36:32.898Z,99.90
2022-08-28T05:39:01.549Z,99.90
2022-08-28T05:41:32.632Z,99.90
2022-08-28T05:44:05.356Z,99.90
2022-08-28T05:46:33.057Z,99.90
2022-08-28T05:49:00.438Z,99.90
2022-08-28T05:51:28.552Z,99.90
2022-08-28T05:53:57.775Z,99.90
2022-08-28T05:56:29.689Z,99.90
2022-08-28T05:58:59.146Z,99.90
2022-08-28T06:01:32.353Z,99.90
2022-08-28T06:04:02.419Z,99.90
2022-08-28T06:06:31.270Z,99.90
2022-08-28T06:08:59.889Z,99.90
2022-08-28T06:11:30.607Z,99.90
2022-08-28T06:14:01.761Z,99.90
2022-08-28T06:16:31.537Z,99.90
2022-08-28T06:18:58.684Z,99.90
2022-08-28T06:21:26.122Z,99.90
2022-08-28T06:23:53.274Z,99.90
2022-08-28T06:26:20.194Z,99.90
2022-08-28T06:28:47.051Z,99.90
2022-08-28T06:31:24.548Z,99.90
2022-08-28T06:33:58.509Z,99.90
2022-08-28T06:36:27.761Z,99.90
2022-08-28T06:38:58.162Z,99.90
2022-08-28T06:41:26.593Z,99.90
2022-08-28T06:43:54.464Z,99.90
2022-08-28T06:46:22.445Z,99.90
2022-08-28T06:48:49.315Z,99.90
2022-08-28T06:51:16.714Z,99.90
2022-08-28T06:53:46.551Z,99.90
2022-08-28T06:56:26.017Z,99.90
2022-08-28T06:58:56.879Z,99.90
2022-08-28T07:01:29.766Z,99.90
2022-08-28T07:04:04.183Z,99.90
2022-08-28T07:06:34.406Z,99.90
2022-08-28T07:09:02.859Z,99.90
2022-08-28T07:11:31.749Z,99.90
2022-08-28T07:13:59.656Z,99.90
2022-08-28T07:16:29.877Z,99.90
2022-08-28T07:18:57.951Z,99.90
2022-08-28T07:21:25.623Z,99.90
2022-08-28T07:23:53.492Z,99.90
2022-08-28T07:26:23.373Z,99.90
2022-08-28T07:28:51.655Z,99.90
2022-08-28T07:31:22.542Z,99.90
2022-08-28T07:33:50.807Z,99.90
2022-08-28T07:36:28.897Z,99.90
2022-08-28T07:38:59.225Z,99.90
2022-08-28T07:41:28.817Z,99.90
2022-08-28T07:44:14.536Z,99.90
2022-08-28T07:46:42.098Z,99.90
2022-08-28T07:49:09.826Z,99.90
2022-08-28T07:51:37.175Z,99.90
2022-08-28T07:54:04.972Z,99.90
2022-08-28T07:56:32.289Z,99.90
2022-08-28T07:59:01.049Z,99.90
2022-08-28T08:01:30.867Z,99.90
2022-08-28T08:04:01.317Z,99.90
2022-08-28T08:06:34.249Z,99.90
2022-08-28T08:09:02.321Z,99.90
2022-08-28T08:11:32.510Z,99.90
2022-08-28T08:14:05.488Z,99.90
2022-08-28T08:16:39.063Z,99.90
2022-08-28T08:19:09.875Z,99.90
2022-08-28T08:21:37.833Z,99.90
2022-08-28T08:24:04.959Z,99.90
2022-08-28T08:26:33.086Z,99.90
2022-08-28T08:29:00.216Z,99.90
2022-08-28T08:31:32.537Z,99.90
2022-08-28T08:34:02.170Z,99.90
2022-08-28T08:36:30.954Z,99.90
2022-08-28T08:39:00.331Z,99.90
2022-08-28T08:41:47.971Z,99.90
2022-08-28T08:44:34.586Z,99.90
2022-08-28T08:47:22.748Z,99.90
2022-08-28T08:49:53.118Z,99.90
2022-08-28T08:52:30.195Z,99.90
2022-08-28T08:55:06.330Z,99.90
2022-08-28T08:57:35.668Z,99.90
2022-08-28T09:00:11.135Z,99.90
2022-08-28T09:02:58.699Z,99.90
2022-08-28T09:06:02.779Z,99.90
2022-08-28T09:08:45.732Z,99.90
2022-08-28T09:11:46.595Z,99.90
2022-08-28T09:14:57.687Z,99.90
2022-08-28T09:17:31.588Z,99.90
2022-08-28T09:19:58.479Z,99.90
2022-08-28T09:22:25.310Z,99.90
2022-08-28T09:24:52.528Z,99.90
2022-08-28T09:27:26.638Z,99.90
2022-08-28T09:30:07.566Z,99.90
2022-08-28T09:32:44.323Z,99.90
2022-08-28T09:35:15.842Z,99.90
2022-08-28T09:37:44.193Z,99.90
2022-08-28T09:40:22.780Z,99.90
2022-08-28T09:43:24.834Z,99.90
2022-08-28T09:45:59.000Z,99.90
2022-08-28T09:48:37.865Z,99.90
2022-08-28T09:51:09.698Z,99.90
2022-08-28T09:53:59.482Z,99.90
2022-08-28T09:56:36.975Z,99.90
2022-08-28T09:59:18.090Z,99.90
2022-08-28T10:02:00.156Z,99.90
2022-08-28T10:04:50.921Z,99.90
2022-08-28T10:07:27.152Z,99.90
2022-08-28T10:10:17.206Z,99.90
2022-08-28T10:13:09.568Z,99.90
2022-08-28T10:15:49.527Z,99.90
2022-08-28T10:19:06.945Z,99.90
2022-08-28T10:21:44.492Z,99.90
2022-08-28T10:24:26.662Z,99.90
2022-08-28T10:27:26.108Z,99.90
2022-08-28T10:30:12.538Z,99.90
2022-08-28T10:32:40.023Z,99.90
2022-08-28T10:35:27.886Z,99.90
2022-08-28T10:38:06.150Z,99.90
2022-08-28T10:40:40.930Z,99.90
2022-08-28T10:43:31.792Z,99.90
2022-08-28T10:46:04.579Z,99.90
2022-08-28T10:48:41.134Z,99.90
2022-08-28T10:51:16.385Z,99.90
2022-08-28T10:53:55.870Z,99.90
2022-08-28T10:56:28.700Z,99.90
2022-08-28T10:58:59.232Z,99.90
2022-08-28T11:01:30.808Z,99.90
2022-08-28T11:04:01.012Z,99.90
2022-08-28T11:06:54.632Z,99.90
2022-08-28T11:09:41.288Z,99.90
2022-08-28T11:12:17.306Z,99.90
2022-08-28T11:14:54.066Z,99.90
2022-08-28T11:17:27.864Z,99.90
2022-08-28T11:20:17.675Z,99.90
2022-08-28T11:22:53.365Z,99.90
2022-08-28T11:25:33.041Z,99.90
2022-08-28T11:28:24.108Z,99.90
2022-08-28T11:31:06.407Z,99.90
2022-08-28T11:33:45.389Z,99.90
2022-08-28T11:36:32.548Z,99.90
2022-08-28T11:39:13.797Z,99.90
2022-08-28T11:42:09.529Z,99.90
2022-08-28T11:44:44.914Z,99.90
2022-08-28T11:47:30.262Z,99.90
2022-08-28T11:50:20.940Z,99.90
2022-08-28T11:53:13.517Z,99.90
2022-08-28T11:56:00.849Z,99.90
2022-08-28T11:58:35.807Z,99.90
2022-08-28T12:01:14.166Z,99.40
2022-08-28T12:03:44.754Z,99.90
2022-08-28T12:06:13.347Z,99.00
2022-08-28T12:08:51.098Z,99.80
2022-08-28T12:11:39.862Z,99.90
2022-08-28T12:14:35.645Z,99.90
2022-08-28T12:17:05.883Z,99.90
2022-08-28T12:19:43.028Z,99.90
2022-08-28T12:22:25.969Z,99.60
2022-08-28T12:24:58.293Z,98.60
2022-08-28T12:27:26.508Z,97.10
2022-08-28T12:29:55.958Z,97.30
2022-08-28T12:32:41.957Z,98.60
2022-08-28T12:35:19.490Z,98.70
2022-08-28T12:38:01.048Z,99.80
2022-08-28T12:40:29.491Z,98.00
2022-08-28T12:43:00.504Z,99.30
2022-08-28T12:45:32.593Z,97.00
2022-08-28T12:48:02.700Z,97.90
2022-08-28T12:50:39.310Z,96.60
2022-08-28T12:53:12.669Z,94.80
2022-08-28T12:55:40.268Z,95.10
2022-08-28T12:58:34.021Z,93.50
2022-08-28T13:01:29.960Z,93.60
2022-08-28T13:04:03.089Z,95.80
2022-08-28T13:06:33.435Z,96.40
2022-08-28T13:09:14.784Z,96.90
2022-08-28T13:11:51.570Z,96.00
2022-08-28T13:14:37.278Z,95.90
2022-08-28T13:17:04.580Z,95.10
2022-08-28T13:19:34.430Z,96.10
2022-08-28T13:22:05.122Z,95.50
2022-08-28T13:24:31.909Z,94.40
2022-08-28T13:27:09.519Z,94.80
2022-08-28T13:29:37.192Z,96.20
2022-08-28T13:32:14.771Z,95.10
2022-08-28T13:34:47.810Z,95.80
2022-08-28T13:37:44.107Z,96.50
2022-08-28T13:40:30.115Z,96.80
2022-08-28T13:43:02.855Z,98.50
2022-08-28T13:45:33.830Z,97.70
2022-08-28T13:48:11.874Z,99.30
2022-08-28T13:50:42.053Z,98.10
2022-08-28T13:53:11.961Z,98.80
2022-08-28T13:55:39.494Z,97.30
2022-08-28T13:58:07.250Z,96.80
2022-08-28T14:00:38.338Z,96.70
2022-08-28T14:03:23.811Z,97.80
2022-08-28T14:05:50.710Z,97.60
2022-08-28T14:08:17.555Z,97.60
2022-08-28T14:10:44.454Z,98.50
2022-08-28T14:13:11.306Z,98.70
2022-08-28T14:15:38.387Z,99.20
2022-08-28T14:18:05.590Z,98.90
2022-08-28T14:20:32.878Z,99.70
2022-08-28T14:22:59.895Z,99.90
2022-08-28T14:25:26.781Z,97.40
2022-08-28T14:27:55.704Z,97.90
2022-08-28T14:30:23.073Z,96.50
2022-08-28T14:32:49.922Z,96.30
2022-08-28T14:35:16.911Z,94.70
2022-08-28T14:37:43.923Z,95.10
2022-08-28T14:40:12.675Z,93.90
2022-08-28T14:42:41.827Z,93.40
2022-08-28T14:45:09.303Z,93.00
2022-08-28T14:47:39.158Z,92.10
2022-08-28T14:50:06.588Z,91.80
2022-08-28T14:52:33.470Z,91.70
2022-08-28T14:55:00.404Z,93.50
2022-08-28T14:57:27.393Z,94.80
2022-08-28T14:59:54.269Z,95.20
2022-08-28T15:02:21.097Z,96.30
2022-08-28T15:04:47.998Z,95.70
2022-08-28T15:07:15.426Z,95.80
2022-08-28T15:09:43.155Z,95.30
2022-08-28T15:12:11.259Z,93.90
2022-08-28T15:14:38.191Z,93.50
2022-08-28T15:17:05.749Z,92.80
2022-08-28T15:19:33.033Z,93.90
2022-08-28T15:22:00.652Z,92.50
2022-08-28T15:24:31.370Z,94.10
2022-08-28T15:26:59.656Z,93.70
2022-08-28T15:29:30.370Z,93.50
2022-08-28T15:31:58.108Z,93.40
2022-08-28T15:34:28.118Z,92.80
2022-08-28T15:36:56.242Z,93.30
2022-08-28T15:39:43.807Z,93.80
2022-08-28T15:42:11.530Z,93.40
2022-08-28T15:44:38.993Z,94.70
2022-08-28T15:47:06.784Z,93.80
2022-08-28T15:49:38.817Z,92.20
2022-08-28T15:52:13.680Z,92.30
2022-08-28T15:54:41.772Z,91.90
2022-08-28T15:57:08.592Z,90.90
2022-08-28T15:59:48.283Z,89.80
2022-08-28T16:02:16.616Z,90.10
2022-08-28T16:04:43.676Z,88.40
2022-08-28T16:07:11.082Z,90.00
2022-08-28T16:09:38.185Z,91.10
2022-08-28T16:12:05.663Z,92.40
2022-08-28T16:14:33.655Z,92.60
2022-08-28T16:17:05.928Z,92.90
2022-08-28T16:19:42.187Z,93.60
2022-08-28T16:22:15.940Z,94.50
2022-08-28T16:24:43.676Z,94.60
2022-08-28T16:27:14.655Z,95.10
2022-08-28T16:29:42.800Z,94.00
2022-08-28T16:32:11.630Z,93.10
2022-08-28T16:34:39.102Z,91.90
2022-08-28T16:37:07.742Z,92.00
2022-08-28T16:39:35.378Z,91.40
2022-08-28T16:42:02.443Z,91.00
2022-08-28T16:44:29.536Z,91.10
2022-08-28T16:46:56.623Z,92.00
2022-08-28T16:49:24.306Z,91.10
2022-08-28T16:51:51.568Z,91.50
2022-08-28T16:54:18.943Z,90.70
2022-08-28T16:56:46.836Z,91.50
2022-08-28T16:59:20.545Z,91.50
2022-08-28T17:01:53.101Z,91.70
2022-08-28T17:04:21.052Z,91.00
2022-08-28T17:06:47.931Z,91.80
2022-08-28T17:09:14.871Z,92.30
2022-08-28T17:11:41.768Z,93.10
2022-08-28T17:14:10.985Z,92.90
2022-08-28T17:16:38.152Z,93.20
2022-08-28T17:19:05.040Z,93.50
2022-08-28T17:21:50.586Z,94.30
2022-08-28T17:24:17.602Z,93.80
2022-08-28T17:26:44.525Z,95.00
2022-08-28T17:29:11.533Z,95.00
2022-08-28T17:31:39.362Z,95.30
2022-08-28T17:34:07.406Z,96.30
2022-08-28T17:36:39.613Z,96.90
2022-08-28T17:39:11.514Z,97.50
2022-08-28T17:41:40.784Z,98.30
2022-08-28T17:44:08.130Z,99.20
2022-08-28T17:46:38.022Z,99.90
2022-08-28T17:49:06.563Z,99.90
2022-08-28T17:51:43.618Z,99.90
2022-08-28T17:54:13.261Z,99.90
2022-08-28T17:56:40.946Z,99.90
2022-08-28T17:59:07.808Z,99.90
2022-08-28T18:01:36.183Z,99.90
2022-08-28T18:04:05.057Z,99.90
2022-08-28T18:06:32.780Z,99.90
2022-08-28T18:09:00.411Z,99.90
2022-08-28T18:11:27.974Z,99.90
2022-08-28T18:13:54.885Z,99.90
2022-08-28T18:16:21.955Z,99.90
2022-08-28T18:18:49.184Z,99.90
2022-08-28T18:21:16.012Z,99.90
2022-08-28T18:23:42.853Z,99.90
2022-08-28T18:26:09.902Z,99.90
2022-08-28T18:28:37.182Z,99.90
2022-08-28T18:31:06.633Z,99.90
2022-08-28T18:33:34.509Z,99.90
2022-08-28T18:36:02.039Z,99.90
2022-08-28T18:38:29.815Z,99.90
2022-08-28T18:40:56.883Z,99.90
2022-08-28T18:43:24.001Z,99.90
2022-08-28T18:45:51.406Z,99.90
2022-08-28T18:48:19.271Z,99.90
2022-08-28T18:50:48.273Z,99.90
2022-08-28T18:53:16.926Z,99.90
2022-08-28T18:55:45.888Z,99.90
2022-08-28T18:58:15.488Z,99.90
2022-08-28T19:00:45.149Z,99.90
2022-08-28T19:03:12.071Z,99.90
2022-08-28T19:05:39.936Z,99.90
2022-08-28T19:08:07.490Z,99.90
2022-08-28T19:10:36.824Z,99.90
2022-08-28T19:13:05.142Z,99.90
2022-08-28T19:15:33.850Z,99.90
2022-08-28T19:18:01.407Z,99.90
2022-08-28T19:20:29.493Z,99.90
2022-08-28T19:22:57.496Z,99.90
2022-08-28T19:25:28.922Z,99.90
2022-08-28T19:27:58.924Z,99.90
2022-08-28T19:30:27.029Z,99.90
2022-08-28T19:32:53.894Z,99.90
2022-08-28T19:35:24.144Z,99.90
2022-08-28T19:37:52.983Z,99.90
2022-08-28T19:40:20.834Z,99.90
2022-08-28T19:42:49.931Z,99.90
2022-08-28T19:45:17.781Z,99.90
2022-08-28T19:47:45.307Z,99.90
2022-08-28T19:50:14.485Z,99.90
2022-08-28T19:52:43.048Z,99.90
2022-08-28T19:55:16.839Z,99.90
2022-08-28T19:57:46.134Z,99.90
2022-08-28T20:00:15.313Z,99.90
2022-08-28T20:02:42.314Z,99.90
2022-08-28T20:05:10.367Z,99.90
2022-08-28T20:07:37.267Z,99.90
2022-08-28T20:10:04.683Z,99.90
2022-08-28T20:12:31.597Z,99.90
2022-08-28T20:15:03.134Z,99.90
2022-08-28T20:17:30.522Z,99.90
2022-08-28T20:20:02.447Z,99.90
2022-08-28T20:22:31.873Z,99.90
2022-08-28T20:24:59.164Z,99.90
2022-08-28T20:27:26.452Z,99.90
2022-08-28T20:29:53.280Z,99.90
2022-08-28T20:32:20.489Z,99.90
2022-08-28T20:34:47.400Z,99.90
2022-08-28T20:37:14.366Z,99.90
2022-08-28T20:39:41.818Z,99.90
2022-08-28T20:42:09.782Z,99.90
2022-08-28T20:44:36.661Z,99.90
2022-08-28T20:47:04.543Z,99.90
2022-08-28T20:49:31.802Z,99.90
2022-08-28T20:52:01.748Z,99.90
2022-08-28T20:54:30.174Z,99.90
2022-08-28T20:56:59.648Z,99.90
2022-08-28T20:59:34.398Z,99.90
2022-08-28T21:02:12.647Z,99.90
2022-08-28T21:04:41.211Z,99.90
2022-08-28T21:07:08.534Z,99.90
2022-08-28T21:09:43.967Z,99.90
2022-08-28T21:12:22.714Z,99.90
2022-08-28T21:14:52.805Z,99.90
2022-08-28T21:17:28.878Z,99.90
2022-08-28T21:20:09.283Z,99.90
2022-08-28T21:22:39.094Z,99.90
2022-08-28T21:25:07.397Z,99.90
2022-08-28T21:27:34.946Z,99.90
2022-08-28T21:30:02.292Z,99.90
2022-08-28T21:32:30.654Z,99.90
2022-08-28T21:34:57.626Z,99.90
2022-08-28T21:37:24.662Z,99.90
2022-08-28T21:39:52.120Z,99.90
2022-08-28T21:42:20.799Z,99.90
2022-08-28T21:44:51.903Z,99.90
2022-08-28T21:47:23.065Z,99.90
2022-08-28T21:49:55.085Z,99.90
2022-08-28T21:52:24.509Z,99.90
2022-08-28T21:54:57.369Z,99.90
2022-08-28T21:57:24.399Z,99.90
2022-08-28T21:59:52.008Z,99.90
2022-08-28T22:02:18.884Z,99.90
2022-08-28T22:04:45.962Z,99.90
2022-08-28T22:07:14.048Z,99.90
2022-08-28T22:09:41.219Z,99.90
2022-08-28T22:12:09.146Z,99.90
2022-08-28T22:14:37.035Z,99.90
2022-08-28T22:17:07.590Z,99.90
2022-08-28T22:19:37.778Z,99.90
2022-08-28T22:22:23.130Z,99.90
2022-08-28T22:24:50.039Z,99.90
2022-08-28T22:27:16.928Z,99.90
2022-08-28T22:29:43.804Z,99.90
2022-08-28T22:32:11.083Z,99.90
2022-08-28T22:34:43.301Z,99.90
2022-08-28T22:37:11.572Z,99.90
2022-08-28T22:39:42.337Z,99.90
2022-08-28T22:42:09.848Z,99.90
2022-08-28T22:44:38.391Z,99.90
2022-08-28T22:47:05.830Z,99.90
2022-08-28T22:49:32.769Z,99.90
2022-08-28T22:51:59.638Z,99.90
2022-08-28T22:54:26.742Z,99.90
2022-08-28T22:56:53.601Z,99.90
2022-08-28T22:59:20.780Z,99.90
2022-08-28T23:01:47.693Z,99.90
2022-08-28T23:04:14.745Z,99.90
2022-08-28T23:06:41.695Z,99.90
2022-08-28T23:09:08.844Z,99.90
2022-08-28T23:11:36.770Z,99.90
2022-08-28T23:14:05.221Z,99.90
2022-08-28T23:16:32.947Z,99.90
2022-08-28T23:19:08.866Z,99.90
2022-08-28T23:21:36.415Z,99.90
2022-08-28T23:24:07.746Z,99.90
2022-08-28T23:26:35.175Z,99.90
2022-08-28T23:29:02.112Z,99.90
2022-08-28T23:31:29.222Z,99.90
2022-08-28T23:33:56.145Z,99.90
2022-08-28T23:36:24.018Z,99.90
2022-08-28T23:38:51.205Z,99.90
2022-08-28T23:41:19.086Z,99.90
2022-08-28T23:43:47.280Z,99.90
2022-08-28T23:46:16.678Z,99.90
2022-08-28T23:48:44.027Z,99.90
2022-08-28T23:51:13.491Z,99.90
2022-08-28T23:53:42.587Z,99.90
2022-08-28T23:56:10.120Z,99.90
2022-08-28T23:58:36.986Z,99.90
